Terminal Aerodrome Forecast
Issued by NWS

Home | Current Version | Previous Version | Text Only | Print | Product List | Glossary On
Versions: 1 2 3 4 5 6 7 8 9 10 11 12 13 14 15 16 17 18
198
FTUS44 KLZK 232343
TAFHOT
TAF
KHOT 232343Z 2400/2424 17007KT P6SM SKC
     FM240600 19009KT P6SM SCT250
      TEMPO 2411/2415 SCT025
     FM241500 25010KT P6SM BKN035 OVC250
     FM241800 28010G16KT P6SM SCT250=

USA.gov is the U.S. government's official web portal to all federal, state and local government web resources and services.